createdAt,value
2022-09-29T01:57:10.074Z,15.54
2022-09-29T02:08:13.769Z,15.43
2022-09-29T02:12:08.110Z,15.59
2022-09-29T02:23:51.516Z,15.55
2022-09-29T02:27:16.725Z,15.36
2022-09-29T02:30:42.789Z,15.74
2022-09-29T02:34:03.079Z,15.63
2022-09-29T02:37:00.302Z,15.59
2022-09-29T02:40:00.646Z,15.60
2022-09-29T02:42:41.900Z,15.83
2022-09-29T02:45:21.975Z,15.67
2022-09-29T02:47:56.404Z,15.71
2022-09-29T02:50:32.807Z,15.74
2022-09-29T02:53:04.125Z,15.61
2022-09-29T02:55:34.224Z,15.68
2022-09-29T02:58:04.528Z,15.68
2022-09-29T03:00:33.167Z,15.67
2022-09-29T03:03:02.814Z,15.78
2022-09-29T03:05:31.425Z,15.73
2022-09-29T03:08:06.204Z,15.63
2022-09-29T03:10:35.949Z,15.73
2022-09-29T03:13:08.393Z,15.72
2022-09-29T03:15:36.763Z,15.85
2022-09-29T03:18:10.330Z,15.39
2022-09-29T03:20:40.084Z,15.56
2022-09-29T03:23:11.703Z,15.80
2022-09-29T03:25:41.992Z,15.74
2022-09-29T03:28:10.831Z,15.73
2022-09-29T03:30:39.310Z,15.69
2022-09-29T03:33:13.287Z,15.68
2022-09-29T03:35:44.646Z,15.39
2022-09-29T03:38:13.805Z,15.37
2022-09-29T03:40:57.972Z,15.52
2022-09-29T05:39:59.827Z,15.51
2022-09-29T06:08:59.833Z,15.43
2022-09-29T06:36:21.222Z,14.72
2022-09-29T06:46:31.388Z,14.60
2022-09-29T07:05:35.782Z,13.90
2022-09-29T07:09:14.267Z,13.96
2022-09-29T07:12:11.009Z,14.04
2022-09-29T07:14:51.424Z,14.02
2022-09-29T07:17:30.364Z,14.17
2022-09-29T07:20:12.107Z,13.98
2022-09-29T07:22:57.966Z,13.73
2022-09-29T07:25:51.597Z,13.79
2022-09-29T07:28:36.028Z,14.02
2022-09-29T07:35:18.137Z,14.09
2022-09-29T07:37:54.626Z,14.34
2022-09-29T07:40:32.279Z,14.67
2022-09-29T07:43:01.559Z,14.50
2022-09-29T07:45:31.871Z,14.69
2022-09-29T07:48:01.300Z,14.89
2022-09-29T07:50:36.794Z,15.00
2022-09-29T07:53:20.999Z,14.89
2022-09-29T07:55:59.029Z,14.50
2022-09-29T07:58:29.502Z,14.93
2022-09-29T08:01:06.686Z,14.83
2022-09-29T08:03:47.664Z,15.11
2022-09-29T08:06:25.914Z,14.89
2022-09-29T10:18:03.370Z,17.44
2022-09-29T10:20:26.934Z,17.73
2022-09-29T10:26:47.666Z,18.14
2022-09-29T10:29:32.995Z,18.22
2022-09-29T10:32:24.725Z,18.29
2022-09-29T10:35:23.691Z,18.51
2022-09-29T10:38:03.148Z,18.81
2022-09-29T10:40:33.081Z,18.59
2022-09-29T10:43:20.090Z,18.77
2022-09-29T10:45:48.859Z,19.06
2022-09-29T10:48:23.239Z,18.86
2022-09-29T10:50:52.897Z,18.82
2022-09-29T10:53:27.293Z,18.88
2022-09-29T10:55:56.690Z,19.09
2022-09-29T10:58:44.763Z,19.28
2022-09-29T11:01:16.791Z,19.41
2022-09-29T11:03:52.836Z,19.58
2022-09-29T11:06:32.207Z,19.84
2022-09-29T11:09:02.215Z,19.69
2022-09-29T11:11:34.565Z,19.60
2022-09-29T11:14:03.329Z,19.65
2022-09-29T11:16:34.234Z,19.50
2022-09-29T11:19:06.067Z,19.30
2022-09-29T11:21:50.939Z,19.38
2022-09-29T11:24:48.055Z,19.13
2022-09-29T11:27:18.022Z,18.75
2022-09-29T11:29:51.573Z,18.75
2022-09-29T11:32:26.426Z,18.90
2022-09-29T11:35:10.009Z,18.84
2022-09-29T11:37:52.277Z,18.62
2022-09-29T11:40:22.513Z,18.63
2022-09-29T11:42:58.916Z,18.47
2022-09-29T11:45:35.311Z,18.50
2022-09-29T11:48:16.715Z,18.65
2022-09-29T11:50:47.266Z,18.50
2022-09-29T11:53:42.117Z,18.47
2022-09-29T11:56:17.648Z,18.64
2022-09-29T11:59:05.033Z,18.56
2022-09-29T12:01:38.682Z,18.62
2022-09-29T12:04:15.562Z,18.85
2022-09-29T12:06:58.248Z,18.78
2022-09-29T12:09:56.963Z,18.98
2022-09-29T12:12:27.621Z,19.08
2022-09-29T12:15:04.601Z,19.10
2022-09-29T12:20:52.037Z,18.99
2022-09-29T12:23:30.682Z,18.87
2022-09-29T12:26:10.313Z,18.65
2022-09-29T12:28:42.678Z,18.94
2022-09-29T12:31:14.908Z,19.34
2022-09-29T12:33:50.829Z,18.92
2022-09-29T12:36:58.362Z,19.19
2022-09-29T12:59:50.852Z,19.27
2022-09-29T13:02:51.414Z,19.49
2022-09-29T13:05:45.290Z,19.45
2022-09-29T13:08:42.217Z,19.45
2022-09-29T13:11:25.828Z,19.93
2022-09-29T13:14:03.477Z,19.98
2022-09-29T13:16:35.004Z,19.85
2022-09-29T13:19:56.798Z,19.82
2022-09-29T13:22:33.138Z,20.03
2022-09-29T13:25:06.629Z,19.94
2022-09-29T13:27:37.443Z,20.06
2022-09-29T13:30:07.878Z,20.12
2022-09-29T13:32:40.153Z,20.23
2022-09-29T13:35:20.562Z,20.28
2022-09-29T13:37:50.592Z,20.16
2022-09-29T13:40:23.279Z,19.98
2022-09-29T14:30:38.949Z,19.82
2022-09-29T14:33:17.603Z,19.60
2022-09-29T14:35:48.325Z,19.92
2022-09-29T14:38:21.870Z,19.95
2022-09-29T14:41:06.206Z,19.83
2022-09-29T14:43:47.440Z,19.77
2022-09-29T14:46:48.228Z,19.71
2022-09-29T14:49:54.957Z,19.73
2022-09-29T14:52:27.268Z,19.66
2022-09-29T14:55:00.531Z,19.77
2022-09-29T14:57:47.252Z,19.37
2022-09-29T15:00:25.815Z,19.36
2022-09-29T15:03:26.611Z,19.38
2022-09-29T15:06:10.749Z,19.34
2022-09-29T15:08:41.067Z,19.45
2022-09-29T15:11:32.405Z,19.45
2022-09-29T15:14:02.257Z,19.28
2022-09-29T15:16:41.502Z,19.34
2022-09-29T15:19:22.258Z,19.24
2022-09-29T15:22:00.633Z,19.21
2022-09-29T17:05:13.876Z,17.42
2022-09-29T17:07:43.792Z,17.00
2022-09-29T17:10:16.868Z,17.02
2022-09-29T17:12:48.798Z,16.93
2022-09-29T17:15:25.804Z,16.89
2022-09-29T17:17:58.783Z,16.85
2022-09-29T17:20:36.841Z,16.79
2022-09-29T17:23:11.805Z,16.79
2022-09-29T17:25:48.347Z,16.74
2022-09-29T17:28:24.861Z,16.76
2022-09-29T17:30:55.890Z,16.49
2022-09-29T17:33:34.427Z,16.41
2022-09-29T17:36:08.284Z,16.40
2022-09-29T17:38:42.341Z,16.40
2022-09-29T17:41:18.100Z,16.28
2022-09-29T17:43:52.548Z,16.15
2022-09-29T17:46:23.047Z,16.19
2022-09-29T17:49:02.161Z,16.23
2022-09-29T17:51:35.369Z,16.08
2022-09-29T17:54:06.961Z,16.13
2022-09-29T17:56:44.678Z,16.12
2022-09-29T20:06:11.243Z,14.84
2022-09-29T20:09:06.651Z,14.87
2022-09-29T20:11:38.315Z,14.93
2022-09-29T20:14:49.036Z,14.80
2022-09-29T20:17:40.338Z,14.85
2022-09-29T20:20:28.205Z,14.82
2022-09-29T20:23:32.180Z,14.67
2022-09-29T20:26:15.781Z,14.85
2022-09-29T21:19:39.845Z,14.59
2022-09-29T21:25:27.342Z,14.55
2022-09-29T21:27:58.320Z,14.59
2022-09-29T21:30:27.060Z,14.20
2022-09-29T21:33:00.713Z,14.58
2022-09-29T21:45:23.698Z,14.39
2022-09-29T21:48:09.421Z,14.50
2022-09-29T23:20:49.433Z,15.69
